sensor_id;sensor_type;location;lat;lon;timestamp;P1;durP1;ratioP1;P2;durP2;ratioP2
12385;SDS011;6257;57.634;18.310;2023-01-15T00:00:20;3.73;;;2.30;;
12385;SDS011;6257;57.634;18.310;2023-01-15T00:02:47;4.43;;;2.23;;
12385;SDS011;6257;57.634;18.310;2023-01-15T00:05:16;4.40;;;2.20;;
12385;SDS011;6257;57.634;18.310;2023-01-15T00:07:43;4.77;;;2.40;;
12385;SDS011;6257;57.634;18.310;2023-01-15T00:10:10;4.63;;;2.20;;
12385;SDS011;6257;57.634;18.310;2023-01-15T00:12:37;5.63;;;2.47;;
12385;SDS011;6257;57.634;18.310;2023-01-15T00:15:04;5.80;;;3.03;;
12385;SDS011;6257;57.634;18.310;2023-01-15T00:17:32;4.87;;;2.50;;
12385;SDS011;6257;57.634;18.310;2023-01-15T00:19:59;7.00;;;2.60;;
12385;SDS011;6257;57.634;18.310;2023-01-15T00:24:56;7.10;;;2.80;;
12385;SDS011;6257;57.634;18.310;2023-01-15T00:27:40;4.97;;;2.60;;
12385;SDS011;6257;57.634;18.310;2023-01-15T00:30:11;5.37;;;2.70;;
12385;SDS011;6257;57.634;18.310;2023-01-15T00:32:40;4.00;;;2.53;;
12385;SDS011;6257;57.634;18.310;2023-01-15T00:35:09;5.10;;;2.50;;
12385;SDS011;6257;57.634;18.310;2023-01-15T00:37:40;6.40;;;2.90;;
12385;SDS011;6257;57.634;18.310;2023-01-15T00:40:08;4.07;;;2.57;;
12385;SDS011;6257;57.634;18.310;2023-01-15T00:42:37;7.03;;;2.80;;
12385;SDS011;6257;57.634;18.310;2023-01-15T00:45:04;7.60;;;2.70;;
12385;SDS011;6257;57.634;18.310;2023-01-15T00:47:34;3.80;;;2.30;;
12385;SDS011;6257;57.634;18.310;2023-01-15T00:50:01;4.90;;;2.63;;
12385;SDS011;6257;57.634;18.310;2023-01-15T00:52:29;6.23;;;2.73;;
12385;SDS011;6257;57.634;18.310;2023-01-15T00:54:57;4.37;;;2.60;;
12385;SDS011;6257;57.634;18.310;2023-01-15T00:57:24;6.43;;;2.80;;
12385;SDS011;6257;57.634;18.310;2023-01-15T00:59:51;6.37;;;2.73;;
12385;SDS011;6257;57.634;18.310;2023-01-15T01:02:18;5.17;;;2.60;;
12385;SDS011;6257;57.634;18.310;2023-01-15T01:04:46;5.97;;;3.20;;
12385;SDS011;6257;57.634;18.310;2023-01-15T01:07:13;4.87;;;2.60;;
12385;SDS011;6257;57.634;18.310;2023-01-15T01:09:40;4.83;;;2.80;;
12385;SDS011;6257;57.634;18.310;2023-01-15T01:12:09;6.17;;;3.00;;
12385;SDS011;6257;57.634;18.310;2023-01-15T01:14:36;6.20;;;3.47;;
12385;SDS011;6257;57.634;18.310;2023-01-15T01:17:03;3.80;;;2.97;;
12385;SDS011;6257;57.634;18.310;2023-01-15T01:19:30;8.17;;;3.37;;
12385;SDS011;6257;57.634;18.310;2023-01-15T01:21:57;3.67;;;2.63;;
12385;SDS011;6257;57.634;18.310;2023-01-15T01:24:24;5.13;;;2.97;;
12385;SDS011;6257;57.634;18.310;2023-01-15T01:26:52;6.87;;;3.37;;
12385;SDS011;6257;57.634;18.310;2023-01-15T01:29:21;5.60;;;3.07;;
12385;SDS011;6257;57.634;18.310;2023-01-15T01:31:49;5.93;;;2.80;;
12385;SDS011;6257;57.634;18.310;2023-01-15T01:34:16;4.73;;;2.83;;
12385;SDS011;6257;57.634;18.310;2023-01-15T01:36:43;5.17;;;3.20;;
12385;SDS011;6257;57.634;18.310;2023-01-15T01:39:12;6.17;;;2.67;;
12385;SDS011;6257;57.634;18.310;2023-01-15T01:41:41;4.40;;;2.97;;
12385;SDS011;6257;57.634;18.310;2023-01-15T01:47:10;3.53;;;2.50;;
12385;SDS011;6257;57.634;18.310;2023-01-15T01:49:42;4.53;;;2.87;;
12385;SDS011;6257;57.634;18.310;2023-01-15T01:52:12;4.10;;;2.70;;
12385;SDS011;6257;57.634;18.310;2023-01-15T01:54:43;4.93;;;2.87;;
12385;SDS011;6257;57.634;18.310;2023-01-15T01:57:12;6.03;;;3.00;;
12385;SDS011;6257;57.634;18.310;2023-01-15T01:59:41;4.80;;;2.70;;
12385;SDS011;6257;57.634;18.310;2023-01-15T02:02:10;3.90;;;2.90;;
12385;SDS011;6257;57.634;18.310;2023-01-15T02:04:38;3.50;;;2.57;;
12385;SDS011;6257;57.634;18.310;2023-01-15T02:07:06;5.60;;;2.70;;
12385;SDS011;6257;57.634;18.310;2023-01-15T02:09:34;2.40;;;2.17;;
12385;SDS011;6257;57.634;18.310;2023-01-15T02:12:01;2.63;;;2.33;;
12385;SDS011;6257;57.634;18.310;2023-01-15T02:14:37;5.87;;;2.70;;
12385;SDS011;6257;57.634;18.310;2023-01-15T02:17:16;2.60;;;2.40;;
12385;SDS011;6257;57.634;18.310;2023-01-15T02:19:48;2.97;;;2.50;;
12385;SDS011;6257;57.634;18.310;2023-01-15T02:22:25;4.57;;;2.50;;
12385;SDS011;6257;57.634;18.310;2023-01-15T02:25:04;4.53;;;2.37;;
12385;SDS011;6257;57.634;18.310;2023-01-15T02:27:37;3.80;;;2.30;;
12385;SDS011;6257;57.634;18.310;2023-01-15T02:30:09;3.57;;;2.20;;
12385;SDS011;6257;57.634;18.310;2023-01-15T02:32:41;3.10;;;1.60;;
12385;SDS011;6257;57.634;18.310;2023-01-15T02:35:12;4.20;;;2.10;;
12385;SDS011;6257;57.634;18.310;2023-01-15T02:37:44;3.40;;;2.23;;
12385;SDS011;6257;57.634;18.310;2023-01-15T02:40:16;2.90;;;1.90;;
12385;SDS011;6257;57.634;18.310;2023-01-15T02:42:47;3.87;;;1.90;;
12385;SDS011;6257;57.634;18.310;2023-01-15T02:45:15;2.50;;;1.70;;
12385;SDS011;6257;57.634;18.310;2023-01-15T02:47:48;1.90;;;1.50;;
12385;SDS011;6257;57.634;18.310;2023-01-15T02:50:18;2.97;;;2.20;;
12385;SDS011;6257;57.634;18.310;2023-01-15T02:52:52;2.33;;;1.80;;
12385;SDS011;6257;57.634;18.310;2023-01-15T02:55:25;2.73;;;1.80;;
12385;SDS011;6257;57.634;18.310;2023-01-15T02:58:01;2.57;;;1.80;;
12385;SDS011;6257;57.634;18.310;2023-01-15T03:00:32;4.30;;;2.10;;
12385;SDS011;6257;57.634;18.310;2023-01-15T03:03:06;3.10;;;2.03;;
12385;SDS011;6257;57.634;18.310;2023-01-15T03:05:38;2.23;;;2.03;;
12385;SDS011;6257;57.634;18.310;2023-01-15T03:08:08;2.67;;;1.87;;
12385;SDS011;6257;57.634;18.310;2023-01-15T03:10:38;6.20;;;2.00;;
12385;SDS011;6257;57.634;18.310;2023-01-15T03:13:15;2.53;;;2.27;;
12385;SDS011;6257;57.634;18.310;2023-01-15T03:15:48;1.50;;;1.40;;
12385;SDS011;6257;57.634;18.310;2023-01-15T03:18:37;4.27;;;2.20;;
12385;SDS011;6257;57.634;18.310;2023-01-15T03:21:09;2.50;;;1.60;;
12385;SDS011;6257;57.634;18.310;2023-01-15T03:23:42;2.53;;;1.60;;
12385;SDS011;6257;57.634;18.310;2023-01-15T03:26:14;2.37;;;1.80;;
12385;SDS011;6257;57.634;18.310;2023-01-15T03:28:43;1.80;;;1.40;;
12385;SDS011;6257;57.634;18.310;2023-01-15T03:31:12;4.37;;;1.50;;
12385;SDS011;6257;57.634;18.310;2023-01-15T03:33:39;1.87;;;1.20;;
12385;SDS011;6257;57.634;18.310;2023-01-15T03:36:07;1.47;;;0.87;;
12385;SDS011;6257;57.634;18.310;2023-01-15T03:38:36;2.53;;;1.07;;
12385;SDS011;6257;57.634;18.310;2023-01-15T03:41:11;2.60;;;1.40;;
12385;SDS011;6257;57.634;18.310;2023-01-15T03:43:48;2.17;;;1.13;;
12385;SDS011;6257;57.634;18.310;2023-01-15T03:46:26;2.60;;;1.23;;
12385;SDS011;6257;57.634;18.310;2023-01-15T03:49:06;1.67;;;1.13;;
12385;SDS011;6257;57.634;18.310;2023-01-15T03:51:42;1.17;;;0.90;;
12385;SDS011;6257;57.634;18.310;2023-01-15T03:54:16;1.00;;;0.80;;
12385;SDS011;6257;57.634;18.310;2023-01-15T03:56:50;2.10;;;1.10;;
12385;SDS011;6257;57.634;18.310;2023-01-15T03:59:26;1.27;;;1.00;;
12385;SDS011;6257;57.634;18.310;2023-01-15T04:01:58;2.53;;;1.10;;
12385;SDS011;6257;57.634;18.310;2023-01-15T04:04:28;2.93;;;1.00;;
12385;SDS011;6257;57.634;18.310;2023-01-15T04:06:57;3.83;;;1.57;;
12385;SDS011;6257;57.634;18.310;2023-01-15T04:09:25;1.27;;;1.00;;
12385;SDS011;6257;57.634;18.310;2023-01-15T04:11:52;2.50;;;0.90;;
12385;SDS011;6257;57.634;18.310;2023-01-15T04:14:23;1.40;;;0.80;;
12385;SDS011;6257;57.634;18.310;2023-01-15T04:16:52;2.13;;;1.00;;
12385;SDS011;6257;57.634;18.310;2023-01-15T04:19:19;1.90;;;0.90;;
12385;SDS011;6257;57.634;18.310;2023-01-15T04:21:46;3.00;;;1.10;;
12385;SDS011;6257;57.634;18.310;2023-01-15T04:24:13;1.90;;;0.97;;
12385;SDS011;6257;57.634;18.310;2023-01-15T04:26:40;1.40;;;1.00;;
12385;SDS011;6257;57.634;18.310;2023-01-15T04:29:07;2.00;;;0.90;;
12385;SDS011;6257;57.634;18.310;2023-01-15T04:31:35;2.93;;;1.33;;
12385;SDS011;6257;57.634;18.310;2023-01-15T04:34:03;3.00;;;0.73;;
12385;SDS011;6257;57.634;18.310;2023-01-15T04:36:30;4.20;;;1.60;;
12385;SDS011;6257;57.634;18.310;2023-01-15T04:38:59;1.57;;;0.93;;
12385;SDS011;6257;57.634;18.310;2023-01-15T04:41:26;2.70;;;1.10;;
12385;SDS011;6257;57.634;18.310;2023-01-15T04:44:11;5.37;;;1.40;;
12385;SDS011;6257;57.634;18.310;2023-01-15T04:46:40;5.87;;;1.30;;
12385;SDS011;6257;57.634;18.310;2023-01-15T04:49:10;3.17;;;1.40;;
12385;SDS011;6257;57.634;18.310;2023-01-15T04:51:38;2.77;;;1.47;;
12385;SDS011;6257;57.634;18.310;2023-01-15T04:54:05;3.73;;;1.40;;
12385;SDS011;6257;57.634;18.310;2023-01-15T04:56:36;4.53;;;1.43;;
12385;SDS011;6257;57.634;18.310;2023-01-15T04:59:05;6.77;;;1.30;;
12385;SDS011;6257;57.634;18.310;2023-01-15T05:01:32;4.57;;;1.60;;
12385;SDS011;6257;57.634;18.310;2023-01-15T05:03:59;2.27;;;1.10;;
12385;SDS011;6257;57.634;18.310;2023-01-15T05:06:28;4.23;;;1.47;;
12385;SDS011;6257;57.634;18.310;2023-01-15T05:08:56;2.57;;;1.30;;
12385;SDS011;6257;57.634;18.310;2023-01-15T05:11:23;4.33;;;1.47;;
12385;SDS011;6257;57.634;18.310;2023-01-15T05:13:50;4.57;;;1.20;;
12385;SDS011;6257;57.634;18.310;2023-01-15T05:16:19;2.77;;;1.43;;
12385;SDS011;6257;57.634;18.310;2023-01-15T05:18:47;4.17;;;1.10;;
12385;SDS011;6257;57.634;18.310;2023-01-15T05:21:15;2.33;;;0.90;;
12385;SDS011;6257;57.634;18.310;2023-01-15T05:23:46;4.50;;;0.97;;
12385;SDS011;6257;57.634;18.310;2023-01-15T05:26:13;3.60;;;1.10;;
12385;SDS011;6257;57.634;18.310;2023-01-15T05:28:41;3.70;;;1.00;;
12385;SDS011;6257;57.634;18.310;2023-01-15T05:31:09;2.20;;;1.03;;
12385;SDS011;6257;57.634;18.310;2023-01-15T05:33:37;5.53;;;1.27;;
12385;SDS011;6257;57.634;18.310;2023-01-15T05:36:05;4.67;;;1.40;;
12385;SDS011;6257;57.634;18.310;2023-01-15T05:38:35;3.50;;;1.10;;
12385;SDS011;6257;57.634;18.310;2023-01-15T05:41:04;3.30;;;0.97;;
12385;SDS011;6257;57.634;18.310;2023-01-15T05:43:52;3.00;;;1.07;;
12385;SDS011;6257;57.634;18.310;2023-01-15T05:46:20;5.60;;;1.50;;
12385;SDS011;6257;57.634;18.310;2023-01-15T05:48:48;3.60;;;1.30;;
12385;SDS011;6257;57.634;18.310;2023-01-15T05:51:15;3.57;;;1.00;;
12385;SDS011;6257;57.634;18.310;2023-01-15T05:53:42;3.33;;;1.17;;
12385;SDS011;6257;57.634;18.310;2023-01-15T05:56:10;4.50;;;1.10;;
12385;SDS011;6257;57.634;18.310;2023-01-15T05:58:37;3.13;;;1.20;;
12385;SDS011;6257;57.634;18.310;2023-01-15T06:01:05;4.00;;;1.00;;
12385;SDS011;6257;57.634;18.310;2023-01-15T06:03:33;1.97;;;0.97;;
12385;SDS011;6257;57.634;18.310;2023-01-15T06:06:01;2.17;;;0.70;;
12385;SDS011;6257;57.634;18.310;2023-01-15T06:08:28;1.80;;;0.77;;
12385;SDS011;6257;57.634;18.310;2023-01-15T06:10:55;4.50;;;0.70;;
12385;SDS011;6257;57.634;18.310;2023-01-15T06:13:24;1.63;;;0.60;;
12385;SDS011;6257;57.634;18.310;2023-01-15T06:15:51;3.57;;;1.07;;
12385;SDS011;6257;57.634;18.310;2023-01-15T06:18:18;1.17;;;0.43;;
12385;SDS011;6257;57.634;18.310;2023-01-15T06:20:45;2.77;;;0.63;;
12385;SDS011;6257;57.634;18.310;2023-01-15T06:23:12;2.37;;;0.50;;
12385;SDS011;6257;57.634;18.310;2023-01-15T06:25:39;0.63;;;0.30;;
12385;SDS011;6257;57.634;18.310;2023-01-15T06:28:06;1.50;;;0.40;;
12385;SDS011;6257;57.634;18.310;2023-01-15T06:30:35;0.77;;;0.47;;
12385;SDS011;6257;57.634;18.310;2023-01-15T06:33:04;1.07;;;0.40;;
12385;SDS011;6257;57.634;18.310;2023-01-15T06:35:31;2.93;;;0.53;;
12385;SDS011;6257;57.634;18.310;2023-01-15T06:37:58;2.53;;;0.53;;
12385;SDS011;6257;57.634;18.310;2023-01-15T06:40:25;3.07;;;0.47;;
12385;SDS011;6257;57.634;18.310;2023-01-15T06:42:53;1.00;;;0.40;;
12385;SDS011;6257;57.634;18.310;2023-01-15T06:45:41;5.33;;;0.60;;
12385;SDS011;6257;57.634;18.310;2023-01-15T06:48:26;5.87;;;1.07;;
12385;SDS011;6257;57.634;18.310;2023-01-15T06:50:53;3.50;;;1.10;;
12385;SDS011;6257;57.634;18.310;2023-01-15T06:53:21;1.47;;;0.30;;
12385;SDS011;6257;57.634;18.310;2023-01-15T06:55:48;1.07;;;0.50;;
12385;SDS011;6257;57.634;18.310;2023-01-15T06:58:15;1.90;;;0.40;;
12385;SDS011;6257;57.634;18.310;2023-01-15T07:00:43;2.13;;;0.40;;
12385;SDS011;6257;57.634;18.310;2023-01-15T07:03:17;2.37;;;0.40;;
12385;SDS011;6257;57.634;18.310;2023-01-15T07:05:44;0.93;;;0.50;;
12385;SDS011;6257;57.634;18.310;2023-01-15T07:08:11;2.67;;;0.50;;
12385;SDS011;6257;57.634;18.310;2023-01-15T07:10:39;2.60;;;0.70;;
12385;SDS011;6257;57.634;18.310;2023-01-15T07:13:07;0.93;;;0.50;;
12385;SDS011;6257;57.634;18.310;2023-01-15T07:15:37;0.97;;;0.60;;
12385;SDS011;6257;57.634;18.310;2023-01-15T07:18:06;1.50;;;0.40;;
12385;SDS011;6257;57.634;18.310;2023-01-15T07:20:33;2.10;;;0.57;;
12385;SDS011;6257;57.634;18.310;2023-01-15T07:23:00;1.60;;;0.50;;
12385;SDS011;6257;57.634;18.310;2023-01-15T07:25:27;1.43;;;0.47;;
12385;SDS011;6257;57.634;18.310;2023-01-15T07:27:54;4.20;;;0.43;;
12385;SDS011;6257;57.634;18.310;2023-01-15T07:30:21;0.43;;;0.20;;
12385;SDS011;6257;57.634;18.310;2023-01-15T07:32:48;1.40;;;0.37;;
12385;SDS011;6257;57.634;18.310;2023-01-15T07:35:17;2.40;;;0.50;;
12385;SDS011;6257;57.634;18.310;2023-01-15T07:37:44;1.50;;;0.43;;
12385;SDS011;6257;57.634;18.310;2023-01-15T07:40:15;1.07;;;0.60;;
12385;SDS011;6257;57.634;18.310;2023-01-15T07:42:43;1.80;;;0.30;;
12385;SDS011;6257;57.634;18.310;2023-01-15T07:45:27;2.30;;;0.60;;
12385;SDS011;6257;57.634;18.310;2023-01-15T07:48:27;5.27;;;0.50;;
12385;SDS011;6257;57.634;18.310;2023-01-15T07:51:13;2.77;;;0.70;;
12385;SDS011;6257;57.634;18.310;2023-01-15T07:53:40;3.67;;;0.63;;
12385;SDS011;6257;57.634;18.310;2023-01-15T07:56:08;2.43;;;0.50;;
12385;SDS011;6257;57.634;18.310;2023-01-15T07:58:35;1.50;;;0.53;;
12385;SDS011;6257;57.634;18.310;2023-01-15T08:01:02;1.87;;;0.63;;
12385;SDS011;6257;57.634;18.310;2023-01-15T08:03:29;2.00;;;0.53;;
12385;SDS011;6257;57.634;18.310;2023-01-15T08:05:57;3.97;;;0.67;;
12385;SDS011;6257;57.634;18.310;2023-01-15T08:08:25;4.20;;;0.70;;
12385;SDS011;6257;57.634;18.310;2023-01-15T08:10:52;2.97;;;0.83;;
12385;SDS011;6257;57.634;18.310;2023-01-15T08:13:36;4.70;;;0.83;;
12385;SDS011;6257;57.634;18.310;2023-01-15T08:16:20;1.40;;;0.60;;
12385;SDS011;6257;57.634;18.310;2023-01-15T08:18:47;2.03;;;0.90;;
12385;SDS011;6257;57.634;18.310;2023-01-15T08:21:15;4.53;;;0.90;;
12385;SDS011;6257;57.634;18.310;2023-01-15T08:23:43;4.77;;;1.00;;
12385;SDS011;6257;57.634;18.310;2023-01-15T08:26:11;5.40;;;0.90;;
12385;SDS011;6257;57.634;18.310;2023-01-15T08:28:39;4.97;;;0.67;;
12385;SDS011;6257;57.634;18.310;2023-01-15T08:31:06;4.57;;;0.80;;
12385;SDS011;6257;57.634;18.310;2023-01-15T08:33:33;3.13;;;0.80;;
12385;SDS011;6257;57.634;18.310;2023-01-15T08:36:01;4.10;;;0.80;;
12385;SDS011;6257;57.634;18.310;2023-01-15T08:38:28;5.53;;;1.07;;
12385;SDS011;6257;57.634;18.310;2023-01-15T08:40:56;3.07;;;1.00;;
12385;SDS011;6257;57.634;18.310;2023-01-15T08:43:23;4.50;;;1.00;;
12385;SDS011;6257;57.634;18.310;2023-01-15T08:45:51;4.57;;;0.67;;
12385;SDS011;6257;57.634;18.310;2023-01-15T08:48:18;5.60;;;1.10;;
12385;SDS011;6257;57.634;18.310;2023-01-15T08:50:45;5.40;;;0.90;;
12385;SDS011;6257;57.634;18.310;2023-01-15T08:53:12;2.00;;;0.53;;
12385;SDS011;6257;57.634;18.310;2023-01-15T08:55:39;3.97;;;1.10;;
12385;SDS011;6257;57.634;18.310;2023-01-15T08:58:08;3.40;;;0.83;;
12385;SDS011;6257;57.634;18.310;2023-01-15T09:00:35;3.57;;;0.80;;
12385;SDS011;6257;57.634;18.310;2023-01-15T09:03:02;4.57;;;1.20;;
12385;SDS011;6257;57.634;18.310;2023-01-15T09:05:30;6.37;;;1.20;;
12385;SDS011;6257;57.634;18.310;2023-01-15T09:07:58;4.43;;;1.17;;
12385;SDS011;6257;57.634;18.310;2023-01-15T09:10:25;4.63;;;1.10;;
12385;SDS011;6257;57.634;18.310;2023-01-15T09:12:52;6.97;;;1.30;;
12385;SDS011;6257;57.634;18.310;2023-01-15T09:15:21;3.40;;;1.07;;
12385;SDS011;6257;57.634;18.310;2023-01-15T09:17:48;7.30;;;1.00;;
12385;SDS011;6257;57.634;18.310;2023-01-15T09:20:15;10.43;;;1.27;;
12385;SDS011;6257;57.634;18.310;2023-01-15T09:22:42;6.23;;;1.20;;
12385;SDS011;6257;57.634;18.310;2023-01-15T09:25:10;8.47;;;1.30;;
12385;SDS011;6257;57.634;18.310;2023-01-15T09:27:37;6.30;;;1.10;;
12385;SDS011;6257;57.634;18.310;2023-01-15T09:30:04;4.10;;;1.17;;
12385;SDS011;6257;57.634;18.310;2023-01-15T09:32:33;7.20;;;1.20;;
12385;SDS011;6257;57.634;18.310;2023-01-15T09:35:01;4.17;;;1.20;;
12385;SDS011;6257;57.634;18.310;2023-01-15T09:37:28;5.57;;;1.17;;
12385;SDS011;6257;57.634;18.310;2023-01-15T09:39:55;10.57;;;1.77;;
12385;SDS011;6257;57.634;18.310;2023-01-15T09:42:26;7.87;;;1.97;;
12385;SDS011;6257;57.634;18.310;2023-01-15T09:45:06;6.27;;;1.40;;
12385;SDS011;6257;57.634;18.310;2023-01-15T09:47:43;6.97;;;1.20;;
12385;SDS011;6257;57.634;18.310;2023-01-15T09:50:23;7.00;;;1.47;;
12385;SDS011;6257;57.634;18.310;2023-01-15T09:55:59;4.00;;;1.07;;
12385;SDS011;6257;57.634;18.310;2023-01-15T09:58:30;7.13;;;1.30;;
12385;SDS011;6257;57.634;18.310;2023-01-15T10:00:59;7.20;;;1.27;;
12385;SDS011;6257;57.634;18.310;2023-01-15T10:03:30;8.80;;;1.53;;
12385;SDS011;6257;57.634;18.310;2023-01-15T10:06:07;7.57;;;1.67;;
12385;SDS011;6257;57.634;18.310;2023-01-15T10:08:41;5.93;;;1.53;;
12385;SDS011;6257;57.634;18.310;2023-01-15T10:11:19;9.13;;;1.70;;
12385;SDS011;6257;57.634;18.310;2023-01-15T10:14:15;7.10;;;1.60;;
12385;SDS011;6257;57.634;18.310;2023-01-15T10:16:51;5.03;;;1.37;;
12385;SDS011;6257;57.634;18.310;2023-01-15T10:19:21;14.33;;;2.17;;
12385;SDS011;6257;57.634;18.310;2023-01-15T10:21:49;8.33;;;1.60;;
12385;SDS011;6257;57.634;18.310;2023-01-15T10:24:24;8.97;;;2.20;;
12385;SDS011;6257;57.634;18.310;2023-01-15T10:27:00;5.67;;;1.50;;
12385;SDS011;6257;57.634;18.310;2023-01-15T10:29:36;8.87;;;2.20;;
12385;SDS011;6257;57.634;18.310;2023-01-15T10:32:09;9.17;;;1.80;;
12385;SDS011;6257;57.634;18.310;2023-01-15T10:37:50;4.33;;;1.40;;
12385;SDS011;6257;57.634;18.310;2023-01-15T10:40:28;10.30;;;1.93;;
12385;SDS011;6257;57.634;18.310;2023-01-15T10:43:09;6.77;;;1.60;;
12385;SDS011;6257;57.634;18.310;2023-01-15T10:45:46;5.33;;;1.67;;
12385;SDS011;6257;57.634;18.310;2023-01-15T10:48:18;9.70;;;1.73;;
12385;SDS011;6257;57.634;18.310;2023-01-15T10:50:55;10.03;;;2.23;;
12385;SDS011;6257;57.634;18.310;2023-01-15T10:53:28;7.77;;;1.70;;
12385;SDS011;6257;57.634;18.310;2023-01-15T10:56:02;7.93;;;1.60;;
12385;SDS011;6257;57.634;18.310;2023-01-15T10:58:36;5.73;;;1.40;;
12385;SDS011;6257;57.634;18.310;2023-01-15T11:01:11;8.50;;;1.90;;
12385;SDS011;6257;57.634;18.310;2023-01-15T11:03:43;9.50;;;1.63;;
12385;SDS011;6257;57.634;18.310;2023-01-15T11:06:12;9.20;;;2.20;;
12385;SDS011;6257;57.634;18.310;2023-01-15T11:08:42;6.00;;;1.63;;
12385;SDS011;6257;57.634;18.310;2023-01-15T11:11:15;7.23;;;1.73;;
12385;SDS011;6257;57.634;18.310;2023-01-15T11:13:51;8.47;;;2.00;;
12385;SDS011;6257;57.634;18.310;2023-01-15T11:16:37;12.43;;;2.10;;
12385;SDS011;6257;57.634;18.310;2023-01-15T11:19:24;7.93;;;1.83;;
12385;SDS011;6257;57.634;18.310;2023-01-15T11:22:06;11.73;;;2.20;;
12385;SDS011;6257;57.634;18.310;2023-01-15T11:24:36;9.50;;;1.57;;
12385;SDS011;6257;57.634;18.310;2023-01-15T11:27:04;8.77;;;1.83;;
12385;SDS011;6257;57.634;18.310;2023-01-15T11:29:33;12.60;;;2.00;;
12385;SDS011;6257;57.634;18.310;2023-01-15T11:32:03;9.30;;;2.00;;
12385;SDS011;6257;57.634;18.310;2023-01-15T11:34:50;11.60;;;1.77;;
12385;SDS011;6257;57.634;18.310;2023-01-15T11:37:19;8.17;;;1.83;;
12385;SDS011;6257;57.634;18.310;2023-01-15T11:39:53;7.43;;;1.80;;
12385;SDS011;6257;57.634;18.310;2023-01-15T11:42:20;8.87;;;1.40;;
12385;SDS011;6257;57.634;18.310;2023-01-15T11:45:11;9.03;;;1.50;;
12385;SDS011;6257;57.634;18.310;2023-01-15T11:48:00;6.23;;;1.77;;
12385;SDS011;6257;57.634;18.310;2023-01-15T11:50:51;6.80;;;1.43;;
12385;SDS011;6257;57.634;18.310;2023-01-15T11:53:25;6.13;;;1.43;;
12385;SDS011;6257;57.634;18.310;2023-01-15T11:55:56;7.33;;;1.53;;
12385;SDS011;6257;57.634;18.310;2023-01-15T11:58:32;5.27;;;1.43;;
12385;SDS011;6257;57.634;18.310;2023-01-15T12:01:04;5.60;;;1.40;;
12385;SDS011;6257;57.634;18.310;2023-01-15T12:03:33;7.20;;;1.60;;
12385;SDS011;6257;57.634;18.310;2023-01-15T12:06:04;4.93;;;1.43;;
12385;SDS011;6257;57.634;18.310;2023-01-15T12:08:44;5.93;;;1.43;;
12385;SDS011;6257;57.634;18.310;2023-01-15T12:11:33;9.67;;;1.23;;
12385;SDS011;6257;57.634;18.310;2023-01-15T12:14:22;5.83;;;1.33;;
12385;SDS011;6257;57.634;18.310;2023-01-15T12:17:16;3.40;;;1.17;;
12385;SDS011;6257;57.634;18.310;2023-01-15T12:20:02;5.83;;;1.30;;
12385;SDS011;6257;57.634;18.310;2023-01-15T12:22:42;8.83;;;1.40;;
12385;SDS011;6257;57.634;18.310;2023-01-15T12:25:24;6.57;;;1.43;;
12385;SDS011;6257;57.634;18.310;2023-01-15T12:28:02;8.03;;;1.60;;
12385;SDS011;6257;57.634;18.310;2023-01-15T12:30:37;3.20;;;1.00;;
12385;SDS011;6257;57.634;18.310;2023-01-15T12:33:14;5.90;;;1.40;;
12385;SDS011;6257;57.634;18.310;2023-01-15T12:35:48;7.17;;;1.23;;
12385;SDS011;6257;57.634;18.310;2023-01-15T12:38:25;5.43;;;1.20;;
12385;SDS011;6257;57.634;18.310;2023-01-15T12:41:06;6.37;;;1.60;;
12385;SDS011;6257;57.634;18.310;2023-01-15T12:43:37;4.27;;;1.10;;
12385;SDS011;6257;57.634;18.310;2023-01-15T12:46:22;6.57;;;1.37;;
12385;SDS011;6257;57.634;18.310;2023-01-15T12:48:56;7.57;;;1.40;;
12385;SDS011;6257;57.634;18.310;2023-01-15T12:51:28;5.20;;;1.33;;
12385;SDS011;6257;57.634;18.310;2023-01-15T12:54:05;3.20;;;0.97;;
12385;SDS011;6257;57.634;18.310;2023-01-15T12:56:44;7.07;;;1.20;;
12385;SDS011;6257;57.634;18.310;2023-01-15T12:59:20;5.00;;;1.03;;
12385;SDS011;6257;57.634;18.310;2023-01-15T13:01:52;5.33;;;1.40;;
12385;SDS011;6257;57.634;18.310;2023-01-15T13:04:28;4.70;;;1.33;;
12385;SDS011;6257;57.634;18.310;2023-01-15T13:07:00;5.30;;;1.53;;
12385;SDS011;6257;57.634;18.310;2023-01-15T13:09:34;5.63;;;1.17;;
12385;SDS011;6257;57.634;18.310;2023-01-15T13:12:10;6.57;;;1.37;;
12385;SDS011;6257;57.634;18.310;2023-01-15T13:14:38;7.33;;;0.97;;
12385;SDS011;6257;57.634;18.310;2023-01-15T13:17:07;4.70;;;0.97;;
12385;SDS011;6257;57.634;18.310;2023-01-15T13:19:42;4.73;;;1.20;;
12385;SDS011;6257;57.634;18.310;2023-01-15T13:22:19;5.13;;;1.37;;
12385;SDS011;6257;57.634;18.310;2023-01-15T13:25:00;5.07;;;1.33;;
12385;SDS011;6257;57.634;18.310;2023-01-15T13:27:55;4.23;;;0.70;;
12385;SDS011;6257;57.634;18.310;2023-01-15T13:30:44;1.73;;;0.40;;
12385;SDS011;6257;57.634;18.310;2023-01-15T13:33:25;0.93;;;0.60;;
12385;SDS011;6257;57.634;18.310;2023-01-15T13:35:56;4.30;;;0.60;;
12385;SDS011;6257;57.634;18.310;2023-01-15T13:38:33;0.90;;;0.40;;
12385;SDS011;6257;57.634;18.310;2023-01-15T13:41:05;3.03;;;0.83;;
12385;SDS011;6257;57.634;18.310;2023-01-15T13:43:35;1.27;;;0.60;;
12385;SDS011;6257;57.634;18.310;2023-01-15T13:46:06;3.67;;;0.83;;
12385;SDS011;6257;57.634;18.310;2023-01-15T13:48:39;2.60;;;0.80;;
12385;SDS011;6257;57.634;18.310;2023-01-15T13:51:19;5.03;;;1.00;;
12385;SDS011;6257;57.634;18.310;2023-01-15T13:53:52;2.10;;;0.70;;
12385;SDS011;6257;57.634;18.310;2023-01-15T13:56:25;2.23;;;0.60;;
12385;SDS011;6257;57.634;18.310;2023-01-15T13:58:55;1.97;;;0.80;;
12385;SDS011;6257;57.634;18.310;2023-01-15T14:01:24;2.93;;;0.87;;
12385;SDS011;6257;57.634;18.310;2023-01-15T14:04:02;1.87;;;0.67;;
12385;SDS011;6257;57.634;18.310;2023-01-15T14:06:35;1.33;;;0.50;;
12385;SDS011;6257;57.634;18.310;2023-01-15T14:09:03;0.73;;;0.33;;
12385;SDS011;6257;57.634;18.310;2023-01-15T14:11:33;1.30;;;0.60;;
12385;SDS011;6257;57.634;18.310;2023-01-15T14:17:10;2.97;;;0.50;;
12385;SDS011;6257;57.634;18.310;2023-01-15T14:19:56;1.67;;;0.77;;
12385;SDS011;6257;57.634;18.310;2023-01-15T14:22:45;1.57;;;0.60;;
12385;SDS011;6257;57.634;18.310;2023-01-15T14:25:28;2.53;;;0.50;;
12385;SDS011;6257;57.634;18.310;2023-01-15T14:28:12;2.10;;;0.67;;
12385;SDS011;6257;57.634;18.310;2023-01-15T14:33:43;3.77;;;0.70;;
12385;SDS011;6257;57.634;18.310;2023-01-15T14:36:23;2.67;;;0.70;;
12385;SDS011;6257;57.634;18.310;2023-01-15T14:38:54;2.57;;;0.83;;
12385;SDS011;6257;57.634;18.310;2023-01-15T14:41:24;5.33;;;1.10;;
12385;SDS011;6257;57.634;18.310;2023-01-15T14:43:52;4.27;;;1.20;;
12385;SDS011;6257;57.634;18.310;2023-01-15T14:46:23;4.80;;;1.20;;
12385;SDS011;6257;57.634;18.310;2023-01-15T14:48:54;5.17;;;1.43;;
12385;SDS011;6257;57.634;18.310;2023-01-15T14:51:22;4.43;;;1.37;;
12385;SDS011;6257;57.634;18.310;2023-01-15T14:53:52;3.63;;;1.13;;
12385;SDS011;6257;57.634;18.310;2023-01-15T14:56:22;5.43;;;1.33;;
12385;SDS011;6257;57.634;18.310;2023-01-15T14:58:55;3.87;;;1.10;;
12385;SDS011;6257;57.634;18.310;2023-01-15T15:01:37;5.30;;;1.27;;
12385;SDS011;6257;57.634;18.310;2023-01-15T15:04:11;10.07;;;1.87;;
12385;SDS011;6257;57.634;18.310;2023-01-15T15:06:45;4.87;;;1.70;;
12385;SDS011;6257;57.634;18.310;2023-01-15T15:09:18;6.70;;;1.60;;
12385;SDS011;6257;57.634;18.310;2023-01-15T15:11:54;8.23;;;1.70;;
12385;SDS011;6257;57.634;18.310;2023-01-15T15:14:48;8.37;;;2.03;;
12385;SDS011;6257;57.634;18.310;2023-01-15T15:17:27;5.97;;;1.63;;
12385;SDS011;6257;57.634;18.310;2023-01-15T15:20:05;6.33;;;1.70;;
12385;SDS011;6257;57.634;18.310;2023-01-15T15:22:44;6.67;;;1.83;;
12385;SDS011;6257;57.634;18.310;2023-01-15T15:25:16;6.27;;;1.70;;
12385;SDS011;6257;57.634;18.310;2023-01-15T15:27:47;7.77;;;1.90;;
12385;SDS011;6257;57.634;18.310;2023-01-15T15:30:15;9.33;;;2.20;;
12385;SDS011;6257;57.634;18.310;2023-01-15T15:32:46;5.63;;;1.70;;